This is the latest recevied weather packets stored in our database for station/object HB9DDE-10. If no packets are shown the sender has not sent any weather packets the latest 1 day(s).
| Time | Temp. | Humidity | Pressure | Rain* | Wind** | Luminosity | Snow |
|---|---|---|---|---|---|---|---|
| 1778098434 | 7.78° C | 94% | 1011.8 hPa | 0 mm | - | - | - |
| 1778097230 | 7.78° C | 93% | 1011.6 hPa | 0 mm | - | - | - |
| 1778096615 | 8.33° C | 92% | 1011.4 hPa | 0 mm | - | - | - |
| 1778096014 | 8.33° C | 92% | 1011.3 hPa | 0 mm | - | - | - |
| 1778095124 | 8.89° C | 91% | 1011.2 hPa | 0 mm | - | - | - |
| 1778094831 | 8.89° C | 90% | 1011.2 hPa | 0 mm | - | - | - |
| 1778094519 | 9.44° C | 89% | 1011.1 hPa | 0 mm | - | - | - |
| 1778094229 | 9.44° C | 89% | 1011 hPa | 0 mm | - | - | - |
| 1778093322 | 9.44° C | 89% | 1011 hPa | 0 mm | - | - | - |
| 1778093032 | 10° C | 89% | 1011 hPa | 0 mm | - | - | - |
| 1778092432 | 10.56° C | 86% | 1010.8 hPa | 0 mm | - | - | - |
| 1778091831 | 10.56° C | 85% | 1010.6 hPa | 0 mm | - | - | - |
| 1778089722 | 11.67° C | 81% | 1010.5 hPa | 0 mm | - | - | - |
| 1778089432 | 12.22° C | 82% | 1010.5 hPa | 0 mm | - | - | - |
| 1778089122 | 11.67° C | 83% | 1010.4 hPa | 0 mm | - | - | - |
| 1778088215 | 11.11° C | 84% | 1010.3 hPa | 0 mm | - | - | - |
| 1778087032 | 11.11° C | 85% | 1010.1 hPa | 0 mm | - | - | - |
| 1778084616 | 11.11° C | 83% | 1010.2 hPa | 0 mm | - | - | - |
| 1778084326 | 11.11° C | 84% | 1010.1 hPa | 0 mm | - | - | - |
| 1778084016 | 11.11° C | 85% | 1010.2 hPa | 0 mm | - | - | - |
| 1778083420 | 11.11° C | 84% | 1010.1 hPa | 0 mm | - | - | - |
| 1778080716 | 11.11° C | 85% | 1010.2 hPa | 0 mm | - | - | - |
| 1778080426 | 11.11° C | 86% | 1010.1 hPa | 0 mm | - | - | - |
| 1778079226 | 11.11° C | 88% | 1010.1 hPa | 0 mm | - | - | - |
| 1778077734 | 11.11° C | 86% | 1010 hPa | 0 mm | - | - | - |
* Rain latest hour (hover to see other rain measurements)
** Current wind speed in m/s (hover to see current wind gust speed)